New Richmond Regional Airport
KRNH : now visible

Airfield :











YOU CAN JOIN US ON...

 
LOGIN :

Register | Disclaimer

   EN    FR    IT 

 









Legend :    VFR   Marginal VFR   IFR   Intensive IFR   Very Intensive IFR
Visi :
Ceiling :
>= 8 km
>= 3000ft
5 to 8 km
1000 to 3000 ft
1500m to 5 km
500 to 1000 ft
800 to 1500m
200 to 500 ft
< 800m
< 200 ft
Symbols :   Thunderstorms  Fog  Heavy snow  Heavy precipitations  Wind > 20 kt






- Airport Elevation : 998 ft


KRNH - New Richmond Regional

CURRENT METAR :
  • 161815Z AUTO 12003KT 10SM SCT070 SCT080 M08/M19 A3012 RMK AO2 T10771186

EXPIRED METARs :
  • 161755Z AUTO 00000KT 10SM SCT085 M07/M18 A3013 RMK AO2 T10751184 11074 21171
  • 161735Z AUTO 00000KT 10SM BKN085 M07/M18 A3014 RMK AO2 T10751176
  • 161715Z AUTO 00000KT 10SM SCT085 M08/M18 A3014 RMK AO2 T10831177
  • 161655Z AUTO 00000KT 10SM CLR M09/M17 A3014 RMK AO2 T10861174
  • 161635Z AUTO 00000KT 10SM CLR M09/M18 A3014 RMK AO2 T10951176
  • 161615Z AUTO 05003KT 10SM SCT120 M10/M17 A3014 RMK AO2 T11011174
  • 161555Z AUTO 02004KT 10SM SCT120 M11/M17 A3014 RMK AO2 T11101175
  • 161535Z AUTO 02004KT 10SM CLR M11/M17 A3014 RMK AO2 T11091173

TAF KRNH
Valid from the 16 at 18:00 until the 17 at 18:00 UTC


161744Z 1618/1718 00000KT P6SM BKN070
FM171000 14008KT P6SM BKN024
FM171200 13008KT P6SM BKN016
FM171400 13007KT 5SM -SHSN BR OVC009
FM171600 13007KT 3SM -SN BR OVC007



MET'MAP, your aeronautical weather chart ! - Copyright ORBIFLY December 2007 - Disclaimer

ORBIFLY MET'MAP TEAM :

Programming & Development : Alexandra Zaïnal
Concept & original design : Baudouin d'Aumeries
Assistance for programming : Marc-Olivier Méhu
Technical & hardware support : Manuel Goepfert

Contact : metmap@orbifly.com




SOURCES & CREDITS :

   NOAA       Earth
Advisory